sensor_id;sensor_type;location;lat;lon;timestamp;temperature;humidity
70068;DHT22;57425;51.616;6.680;2023-02-03T00:00:37;8.40;89.30
70068;DHT22;57425;51.616;6.680;2023-02-03T00:03:03;8.40;89.20
70068;DHT22;57425;51.616;6.680;2023-02-03T00:05:29;8.40;89.30
70068;DHT22;57425;51.616;6.680;2023-02-03T00:07:55;8.40;89.40
70068;DHT22;57425;51.616;6.680;2023-02-03T00:10:21;8.50;89.40
70068;DHT22;57425;51.616;6.680;2023-02-03T00:12:50;8.40;89.30
70068;DHT22;57425;51.616;6.680;2023-02-03T00:15:20;8.40;89.30
70068;DHT22;57425;51.616;6.680;2023-02-03T00:17:47;8.40;89.30
70068;DHT22;57425;51.616;6.680;2023-02-03T00:20:14;8.40;89.30
70068;DHT22;57425;51.616;6.680;2023-02-03T00:22:40;8.40;89.30
70068;DHT22;57425;51.616;6.680;2023-02-03T00:25:05;8.40;89.30
70068;DHT22;57425;51.616;6.680;2023-02-03T00:27:31;8.40;89.30
70068;DHT22;57425;51.616;6.680;2023-02-03T00:29:57;8.40;89.80
70068;DHT22;57425;51.616;6.680;2023-02-03T00:32:23;8.40;89.30
70068;DHT22;57425;51.616;6.680;2023-02-03T00:34:49;8.40;89.30
70068;DHT22;57425;51.616;6.680;2023-02-03T00:37:15;8.40;89.30
70068;DHT22;57425;51.616;6.680;2023-02-03T00:39:41;8.40;89.30
70068;DHT22;57425;51.616;6.680;2023-02-03T00:42:06;8.40;89.30
70068;DHT22;57425;51.616;6.680;2023-02-03T00:44:32;8.50;89.30
70068;DHT22;57425;51.616;6.680;2023-02-03T00:46:58;8.40;89.30
70068;DHT22;57425;51.616;6.680;2023-02-03T00:49:24;8.50;89.30
70068;DHT22;57425;51.616;6.680;2023-02-03T00:51:50;8.40;89.30
70068;DHT22;57425;51.616;6.680;2023-02-03T00:54:16;8.50;89.40
70068;DHT22;57425;51.616;6.680;2023-02-03T00:56:41;8.50;89.90
70068;DHT22;57425;51.616;6.680;2023-02-03T00:59:07;8.40;89.30
70068;DHT22;57425;51.616;6.680;2023-02-03T01:01:33;8.50;89.30
70068;DHT22;57425;51.616;6.680;2023-02-03T01:03:59;8.40;89.30
70068;DHT22;57425;51.616;6.680;2023-02-03T01:06:25;8.50;89.30
70068;DHT22;57425;51.616;6.680;2023-02-03T01:08:50;8.40;89.30
70068;DHT22;57425;51.616;6.680;2023-02-03T01:11:24;8.50;89.30
70068;DHT22;57425;51.616;6.680;2023-02-03T01:13:53;8.40;89.30
70068;DHT22;57425;51.616;6.680;2023-02-03T01:16:22;8.40;89.30
70068;DHT22;57425;51.616;6.680;2023-02-03T01:18:48;8.40;89.30
70068;DHT22;57425;51.616;6.680;2023-02-03T01:21:16;8.40;89.30
70068;DHT22;57425;51.616;6.680;2023-02-03T01:23:43;8.40;89.30
70068;DHT22;57425;51.616;6.680;2023-02-03T01:26:11;8.40;89.30
70068;DHT22;57425;51.616;6.680;2023-02-03T01:28:37;8.40;89.30
70068;DHT22;57425;51.616;6.680;2023-02-03T01:31:13;8.40;89.30
70068;DHT22;57425;51.616;6.680;2023-02-03T01:33:39;8.40;89.30
70068;DHT22;57425;51.616;6.680;2023-02-03T01:36:07;8.40;89.30
70068;DHT22;57425;51.616;6.680;2023-02-03T01:38:32;8.40;89.30
70068;DHT22;57425;51.616;6.680;2023-02-03T01:40:58;8.50;89.90
70068;DHT22;57425;51.616;6.680;2023-02-03T01:46:02;8.50;89.40
70068;DHT22;57425;51.616;6.680;2023-02-03T01:48:30;8.50;89.40
70068;DHT22;57425;51.616;6.680;2023-02-03T01:50:59;8.50;89.40
70068;DHT22;57425;51.616;6.680;2023-02-03T01:53:26;8.50;89.40
70068;DHT22;57425;51.616;6.680;2023-02-03T01:55:52;8.50;89.40
70068;DHT22;57425;51.616;6.680;2023-02-03T01:58:24;8.50;89.90
70068;DHT22;57425;51.616;6.680;2023-02-03T02:00:51;8.50;89.30
70068;DHT22;57425;51.616;6.680;2023-02-03T02:03:21;8.40;89.30
70068;DHT22;57425;51.616;6.680;2023-02-03T02:05:57;8.50;89.40
70068;DHT22;57425;51.616;6.680;2023-02-03T02:08:25;8.40;89.30
70068;DHT22;57425;51.616;6.680;2023-02-03T02:10:51;8.50;89.30
70068;DHT22;57425;51.616;6.680;2023-02-03T02:13:18;8.40;89.30
70068;DHT22;57425;51.616;6.680;2023-02-03T02:18:23;8.50;89.30
70068;DHT22;57425;51.616;6.680;2023-02-03T02:31:50;8.40;89.30
70068;DHT22;57425;51.616;6.680;2023-02-03T02:37:37;8.40;89.20
70068;DHT22;57425;51.616;6.680;2023-02-03T02:40:13;8.40;89.20
70068;DHT22;57425;51.616;6.680;2023-02-03T02:42:59;8.50;89.30
70068;DHT22;57425;51.616;6.680;2023-02-03T02:45:30;8.50;89.30
70068;DHT22;57425;51.616;6.680;2023-02-03T02:48:09;8.50;89.30
70068;DHT22;57425;51.616;6.680;2023-02-03T02:50:41;8.50;89.40
70068;DHT22;57425;51.616;6.680;2023-02-03T02:53:10;8.50;89.40
70068;DHT22;57425;51.616;6.680;2023-02-03T02:55:39;8.50;89.40
70068;DHT22;57425;51.616;6.680;2023-02-03T02:58:08;8.50;89.40
70068;DHT22;57425;51.616;6.680;2023-02-03T03:00:35;8.50;89.40
70068;DHT22;57425;51.616;6.680;2023-02-03T03:03:20;8.50;89.40
70068;DHT22;57425;51.616;6.680;2023-02-03T03:06:00;8.60;89.40
70068;DHT22;57425;51.616;6.680;2023-02-03T03:08:38;8.50;89.40
70068;DHT22;57425;51.616;6.680;2023-02-03T03:11:05;8.60;89.40
70068;DHT22;57425;51.616;6.680;2023-02-03T03:13:35;8.50;89.40
70068;DHT22;57425;51.616;6.680;2023-02-03T03:16:04;8.50;89.40
70068;DHT22;57425;51.616;6.680;2023-02-03T03:22:03;8.50;89.40
70068;DHT22;57425;51.616;6.680;2023-02-03T03:24:37;8.50;89.40
70068;DHT22;57425;51.616;6.680;2023-02-03T03:27:11;8.50;89.40
70068;DHT22;57425;51.616;6.680;2023-02-03T03:32:03;8.50;89.40
70068;DHT22;57425;51.616;6.680;2023-02-03T03:34:30;8.50;89.40
70068;DHT22;57425;51.616;6.680;2023-02-03T03:39:34;8.50;89.40
70068;DHT22;57425;51.616;6.680;2023-02-03T03:44:57;8.50;89.40
70068;DHT22;57425;51.616;6.680;2023-02-03T03:47:26;8.60;89.40
70068;DHT22;57425;51.616;6.680;2023-02-03T03:49:56;8.40;89.30
70068;DHT22;57425;51.616;6.680;2023-02-03T03:52:28;8.50;89.40
70068;DHT22;57425;51.616;6.680;2023-02-03T03:54:56;8.40;89.30
70068;DHT22;57425;51.616;6.680;2023-02-03T03:57:25;8.50;89.30
70068;DHT22;57425;51.616;6.680;2023-02-03T03:59:53;8.50;89.40
70068;DHT22;57425;51.616;6.680;2023-02-03T04:02:20;8.50;89.30
70068;DHT22;57425;51.616;6.680;2023-02-03T04:04:47;8.50;89.40
70068;DHT22;57425;51.616;6.680;2023-02-03T04:07:13;8.50;89.90
70068;DHT22;57425;51.616;6.680;2023-02-03T04:09:39;8.50;89.40
70068;DHT22;57425;51.616;6.680;2023-02-03T04:12:15;8.50;89.40
70068;DHT22;57425;51.616;6.680;2023-02-03T04:14:43;8.50;89.40
70068;DHT22;57425;51.616;6.680;2023-02-03T04:17:08;8.50;89.90
70068;DHT22;57425;51.616;6.680;2023-02-03T04:19:34;8.50;89.40
70068;DHT22;57425;51.616;6.680;2023-02-03T04:22:00;8.50;89.40
70068;DHT22;57425;51.616;6.680;2023-02-03T04:24:26;8.50;89.40
70068;DHT22;57425;51.616;6.680;2023-02-03T04:26:52;8.50;89.40
70068;DHT22;57425;51.616;6.680;2023-02-03T04:29:18;8.50;89.40
70068;DHT22;57425;51.616;6.680;2023-02-03T04:31:43;8.50;89.40
70068;DHT22;57425;51.616;6.680;2023-02-03T04:34:09;8.50;89.40
70068;DHT22;57425;51.616;6.680;2023-02-03T04:36:34;8.50;89.40
70068;DHT22;57425;51.616;6.680;2023-02-03T04:39:00;8.60;89.40
70068;DHT22;57425;51.616;6.680;2023-02-03T04:41:26;8.50;89.40
70068;DHT22;57425;51.616;6.680;2023-02-03T04:43:52;8.50;89.40
70068;DHT22;57425;51.616;6.680;2023-02-03T04:46:18;8.50;89.40
70068;DHT22;57425;51.616;6.680;2023-02-03T04:48:44;8.50;89.30
70068;DHT22;57425;51.616;6.680;2023-02-03T04:51:09;8.50;89.30
70068;DHT22;57425;51.616;6.680;2023-02-03T04:53:35;8.50;89.30
70068;DHT22;57425;51.616;6.680;2023-02-03T04:56:00;8.50;89.40
70068;DHT22;57425;51.616;6.680;2023-02-03T04:58:26;8.50;89.40
70068;DHT22;57425;51.616;6.680;2023-02-03T05:00:53;8.50;89.40
70068;DHT22;57425;51.616;6.680;2023-02-03T05:03:18;8.50;89.40
70068;DHT22;57425;51.616;6.680;2023-02-03T05:05:44;8.50;89.40
70068;DHT22;57425;51.616;6.680;2023-02-03T05:08:10;8.50;89.40
70068;DHT22;57425;51.616;6.680;2023-02-03T05:10:35;8.50;89.30
70068;DHT22;57425;51.616;6.680;2023-02-03T05:13:01;8.50;89.30
70068;DHT22;57425;51.616;6.680;2023-02-03T05:15:26;8.50;89.40
70068;DHT22;57425;51.616;6.680;2023-02-03T05:17:54;8.50;89.30
70068;DHT22;57425;51.616;6.680;2023-02-03T05:20:20;8.50;89.30
70068;DHT22;57425;51.616;6.680;2023-02-03T05:22:46;8.50;89.30
70068;DHT22;57425;51.616;6.680;2023-02-03T05:25:13;8.50;89.30
70068;DHT22;57425;51.616;6.680;2023-02-03T05:27:39;8.50;89.30
70068;DHT22;57425;51.616;6.680;2023-02-03T05:30:06;8.50;89.30
70068;DHT22;57425;51.616;6.680;2023-02-03T05:32:32;8.50;89.30
70068;DHT22;57425;51.616;6.680;2023-02-03T05:34:58;8.60;89.30
70068;DHT22;57425;51.616;6.680;2023-02-03T05:37:23;8.50;89.30
70068;DHT22;57425;51.616;6.680;2023-02-03T05:39:49;8.50;89.30
70068;DHT22;57425;51.616;6.680;2023-02-03T05:42:15;8.50;89.30
70068;DHT22;57425;51.616;6.680;2023-02-03T05:44:40;8.50;89.30
70068;DHT22;57425;51.616;6.680;2023-02-03T05:47:06;8.50;89.30
70068;DHT22;57425;51.616;6.680;2023-02-03T05:49:32;8.50;89.30
70068;DHT22;57425;51.616;6.680;2023-02-03T05:51:57;8.50;89.90
70068;DHT22;57425;51.616;6.680;2023-02-03T05:54:23;8.50;89.30
70068;DHT22;57425;51.616;6.680;2023-02-03T05:56:49;8.50;89.30
70068;DHT22;57425;51.616;6.680;2023-02-03T05:59:15;8.60;89.40
70068;DHT22;57425;51.616;6.680;2023-02-03T06:01:40;8.60;89.40
70068;DHT22;57425;51.616;6.680;2023-02-03T06:04:06;8.50;89.30
70068;DHT22;57425;51.616;6.680;2023-02-03T06:06:32;8.50;89.30
70068;DHT22;57425;51.616;6.680;2023-02-03T06:09:07;8.50;89.30
70068;DHT22;57425;51.616;6.680;2023-02-03T06:11:33;8.60;89.40
70068;DHT22;57425;51.616;6.680;2023-02-03T06:14:00;8.50;89.40
70068;DHT22;57425;51.616;6.680;2023-02-03T06:16:27;8.60;89.40
70068;DHT22;57425;51.616;6.680;2023-02-03T06:18:54;8.60;90.00
70068;DHT22;57425;51.616;6.680;2023-02-03T06:21:20;8.50;89.40
70068;DHT22;57425;51.616;6.680;2023-02-03T06:23:47;8.60;89.40
70068;DHT22;57425;51.616;6.680;2023-02-03T06:26:13;8.50;89.40
70068;DHT22;57425;51.616;6.680;2023-02-03T06:28:38;8.50;89.40
70068;DHT22;57425;51.616;6.680;2023-02-03T06:31:04;8.60;89.40
70068;DHT22;57425;51.616;6.680;2023-02-03T06:33:31;8.70;89.50
70068;DHT22;57425;51.616;6.680;2023-02-03T06:35:57;8.70;89.50
70068;DHT22;57425;51.616;6.680;2023-02-03T06:38:23;8.60;89.40
70068;DHT22;57425;51.616;6.680;2023-02-03T06:40:49;8.60;89.40
70068;DHT22;57425;51.616;6.680;2023-02-03T06:43:15;8.50;89.40
70068;DHT22;57425;51.616;6.680;2023-02-03T06:45:40;8.60;89.40
70068;DHT22;57425;51.616;6.680;2023-02-03T06:48:09;8.60;89.40
70068;DHT22;57425;51.616;6.680;2023-02-03T06:50:35;8.50;89.30
70068;DHT22;57425;51.616;6.680;2023-02-03T06:53:01;8.60;89.40
70068;DHT22;57425;51.616;6.680;2023-02-03T06:55:26;8.60;89.30
70068;DHT22;57425;51.616;6.680;2023-02-03T06:57:52;8.60;89.40
70068;DHT22;57425;51.616;6.680;2023-02-03T07:00:18;8.60;89.90
70068;DHT22;57425;51.616;6.680;2023-02-03T07:02:44;8.60;89.40
70068;DHT22;57425;51.616;6.680;2023-02-03T07:05:09;8.60;89.30
70068;DHT22;57425;51.616;6.680;2023-02-03T07:07:36;8.60;89.30
70068;DHT22;57425;51.616;6.680;2023-02-03T07:10:04;8.60;89.30
70068;DHT22;57425;51.616;6.680;2023-02-03T07:12:30;8.60;89.30
70068;DHT22;57425;51.616;6.680;2023-02-03T07:14:56;8.60;89.30
70068;DHT22;57425;51.616;6.680;2023-02-03T07:17:22;8.60;89.40
70068;DHT22;57425;51.616;6.680;2023-02-03T07:19:48;8.60;89.40
70068;DHT22;57425;51.616;6.680;2023-02-03T07:22:13;8.60;89.40
70068;DHT22;57425;51.616;6.680;2023-02-03T07:24:39;8.60;89.40
70068;DHT22;57425;51.616;6.680;2023-02-03T07:27:04;8.60;89.40
70068;DHT22;57425;51.616;6.680;2023-02-03T07:29:30;8.70;89.50
70068;DHT22;57425;51.616;6.680;2023-02-03T07:31:55;8.60;89.40
70068;DHT22;57425;51.616;6.680;2023-02-03T07:34:21;8.60;89.40
70068;DHT22;57425;51.616;6.680;2023-02-03T07:36:47;8.70;89.40
70068;DHT22;57425;51.616;6.680;2023-02-03T07:39:12;8.60;89.40
70068;DHT22;57425;51.616;6.680;2023-02-03T07:41:38;8.60;89.40
70068;DHT22;57425;51.616;6.680;2023-02-03T07:44:04;8.60;89.40
70068;DHT22;57425;51.616;6.680;2023-02-03T07:46:30;8.60;89.40
70068;DHT22;57425;51.616;6.680;2023-02-03T07:48:56;8.60;89.40
70068;DHT22;57425;51.616;6.680;2023-02-03T07:51:21;8.60;89.40
70068;DHT22;57425;51.616;6.680;2023-02-03T07:53:47;8.60;89.50
70068;DHT22;57425;51.616;6.680;2023-02-03T07:56:12;8.60;89.50
70068;DHT22;57425;51.616;6.680;2023-02-03T07:58:38;8.60;89.50
70068;DHT22;57425;51.616;6.680;2023-02-03T08:01:22;8.60;89.50
70068;DHT22;57425;51.616;6.680;2023-02-03T08:03:47;8.70;89.60
70068;DHT22;57425;51.616;6.680;2023-02-03T08:06:13;8.60;89.50
70068;DHT22;57425;51.616;6.680;2023-02-03T08:08:39;8.70;89.60
70068;DHT22;57425;51.616;6.680;2023-02-03T08:11:06;8.60;89.60
70068;DHT22;57425;51.616;6.680;2023-02-03T08:13:32;8.60;89.50
70068;DHT22;57425;51.616;6.680;2023-02-03T08:15:58;8.60;89.50
70068;DHT22;57425;51.616;6.680;2023-02-03T08:18:24;8.70;89.70
70068;DHT22;57425;51.616;6.680;2023-02-03T08:20:50;8.70;89.70
70068;DHT22;57425;51.616;6.680;2023-02-03T08:23:15;8.70;89.70
70068;DHT22;57425;51.616;6.680;2023-02-03T08:25:41;8.70;89.60
70068;DHT22;57425;51.616;6.680;2023-02-03T08:28:06;8.80;89.70
70068;DHT22;57425;51.616;6.680;2023-02-03T08:30:32;8.70;89.50
70068;DHT22;57425;51.616;6.680;2023-02-03T08:32:58;8.80;89.60
70068;DHT22;57425;51.616;6.680;2023-02-03T08:35:25;8.80;89.50
70068;DHT22;57425;51.616;6.680;2023-02-03T08:37:50;8.70;89.50
70068;DHT22;57425;51.616;6.680;2023-02-03T08:40:16;8.70;89.50
70068;DHT22;57425;51.616;6.680;2023-02-03T08:42:42;8.70;89.50
70068;DHT22;57425;51.616;6.680;2023-02-03T08:45:08;8.70;89.50
70068;DHT22;57425;51.616;6.680;2023-02-03T08:47:34;8.70;89.50
70068;DHT22;57425;51.616;6.680;2023-02-03T08:50:02;8.70;89.50
70068;DHT22;57425;51.616;6.680;2023-02-03T08:52:27;8.70;89.50
70068;DHT22;57425;51.616;6.680;2023-02-03T08:54:53;8.70;89.50
70068;DHT22;57425;51.616;6.680;2023-02-03T08:57:19;8.70;89.50
70068;DHT22;57425;51.616;6.680;2023-02-03T08:59:45;8.70;89.50
70068;DHT22;57425;51.616;6.680;2023-02-03T09:02:14;8.70;89.50
70068;DHT22;57425;51.616;6.680;2023-02-03T09:04:41;8.70;89.60
70068;DHT22;57425;51.616;6.680;2023-02-03T09:07:08;8.70;89.60
70068;DHT22;57425;51.616;6.680;2023-02-03T09:09:33;8.80;89.60
70068;DHT22;57425;51.616;6.680;2023-02-03T09:11:59;8.90;89.60
70068;DHT22;57425;51.616;6.680;2023-02-03T09:14:29;8.70;89.50
70068;DHT22;57425;51.616;6.680;2023-02-03T09:16:55;8.70;89.60
70068;DHT22;57425;51.616;6.680;2023-02-03T09:19:21;8.70;89.60
70068;DHT22;57425;51.616;6.680;2023-02-03T09:21:47;8.70;89.50
70068;DHT22;57425;51.616;6.680;2023-02-03T09:24:14;9.00;89.60
70068;DHT22;57425;51.616;6.680;2023-02-03T09:26:40;8.70;89.50
70068;DHT22;57425;51.616;6.680;2023-02-03T09:29:05;8.80;89.60
70068;DHT22;57425;51.616;6.680;2023-02-03T09:31:32;8.70;89.50
70068;DHT22;57425;51.616;6.680;2023-02-03T09:33:58;8.70;89.60
70068;DHT22;57425;51.616;6.680;2023-02-03T09:36:24;8.70;89.50
70068;DHT22;57425;51.616;6.680;2023-02-03T09:38:50;8.80;89.60
70068;DHT22;57425;51.616;6.680;2023-02-03T09:46:43;8.70;89.60
70068;DHT22;57425;51.616;6.680;2023-02-03T09:51:53;8.80;89.70
70068;DHT22;57425;51.616;6.680;2023-02-03T09:54:44;8.80;89.70
70068;DHT22;57425;51.616;6.680;2023-02-03T09:57:24;8.80;89.60
70068;DHT22;57425;51.616;6.680;2023-02-03T09:59:50;8.80;89.70
70068;DHT22;57425;51.616;6.680;2023-02-03T10:08:52;8.80;89.70
70068;DHT22;57425;51.616;6.680;2023-02-03T10:11:49;8.80;89.80
70068;DHT22;57425;51.616;6.680;2023-02-03T10:20:28;8.80;89.70
70068;DHT22;57425;51.616;6.680;2023-02-03T10:22:39;8.80;89.80
70068;DHT22;57425;51.616;6.680;2023-02-03T10:25:07;8.80;89.80
70068;DHT22;57425;51.616;6.680;2023-02-03T10:27:36;8.80;89.80
70068;DHT22;57425;51.616;6.680;2023-02-03T10:30:18;8.80;90.10
70068;DHT22;57425;51.616;6.680;2023-02-03T10:32:46;8.80;89.80
70068;DHT22;57425;51.616;6.680;2023-02-03T10:35:14;8.80;90.10
70068;DHT22;57425;51.616;6.680;2023-02-03T10:37:45;8.80;89.80
70068;DHT22;57425;51.616;6.680;2023-02-03T10:40:14;8.90;90.20
70068;DHT22;57425;51.616;6.680;2023-02-03T10:42:42;8.80;89.80
70068;DHT22;57425;51.616;6.680;2023-02-03T10:45:29;8.80;89.80
70068;DHT22;57425;51.616;6.680;2023-02-03T10:47:56;8.90;89.80
70068;DHT22;57425;51.616;6.680;2023-02-03T10:50:24;8.80;89.80
70068;DHT22;57425;51.616;6.680;2023-02-03T10:55:44;8.90;89.80
70068;DHT22;57425;51.616;6.680;2023-02-03T10:58:26;8.90;89.80
70068;DHT22;57425;51.616;6.680;2023-02-03T11:01:12;8.90;90.10
70068;DHT22;57425;51.616;6.680;2023-02-03T11:04:01;8.90;90.10
70068;DHT22;57425;51.616;6.680;2023-02-03T11:06:29;8.90;89.90
70068;DHT22;57425;51.616;6.680;2023-02-03T11:08:55;8.90;89.90
70068;DHT22;57425;51.616;6.680;2023-02-03T11:16:29;8.90;90.00
70068;DHT22;57425;51.616;6.680;2023-02-03T11:19:01;8.90;90.00
70068;DHT22;57425;51.616;6.680;2023-02-03T11:24:02;8.90;90.00
70068;DHT22;57425;51.616;6.680;2023-02-03T11:26:40;8.90;90.00
70068;DHT22;57425;51.616;6.680;2023-02-03T11:29:15;8.90;90.00
70068;DHT22;57425;51.616;6.680;2023-02-03T11:31:46;9.00;90.00
70068;DHT22;57425;51.616;6.680;2023-02-03T11:34:16;9.00;90.00
70068;DHT22;57425;51.616;6.680;2023-02-03T11:36:42;9.00;90.30
70068;DHT22;57425;51.616;6.680;2023-02-03T11:39:27;9.00;90.00
70068;DHT22;57425;51.616;6.680;2023-02-03T11:41:53;9.00;90.00
70068;DHT22;57425;51.616;6.680;2023-02-03T11:44:25;9.00;90.00
70068;DHT22;57425;51.616;6.680;2023-02-03T11:47:00;9.00;90.10
70068;DHT22;57425;51.616;6.680;2023-02-03T11:55:25;9.00;90.20
70068;DHT22;57425;51.616;6.680;2023-02-03T12:00:37;9.10;90.10
70068;DHT22;57425;51.616;6.680;2023-02-03T12:08:40;9.00;90.10
70068;DHT22;57425;51.616;6.680;2023-02-03T12:19:41;9.00;90.20
70068;DHT22;57425;51.616;6.680;2023-02-03T12:22:42;9.00;90.30
70068;DHT22;57425;51.616;6.680;2023-02-03T12:30:43;9.10;90.20
70068;DHT22;57425;51.616;6.680;2023-02-03T12:33:19;9.00;90.20
70068;DHT22;57425;51.616;6.680;2023-02-03T12:36:04;9.00;90.20
70068;DHT22;57425;51.616;6.680;2023-02-03T12:38:40;9.10;90.20
70068;DHT22;57425;51.616;6.680;2023-02-03T12:41:17;9.10;90.30
70068;DHT22;57425;51.616;6.680;2023-02-03T12:43:48;9.10;90.20
70068;DHT22;57425;51.616;6.680;2023-02-03T12:46:56;9.10;90.20
70068;DHT22;57425;51.616;6.680;2023-02-03T12:49:46;9.10;90.20
70068;DHT22;57425;51.616;6.680;2023-02-03T12:52:31;9.20;90.20
70068;DHT22;57425;51.616;6.680;2023-02-03T12:55:05;9.10;90.20
70068;DHT22;57425;51.616;6.680;2023-02-03T12:57:37;9.10;90.20
70068;DHT22;57425;51.616;6.680;2023-02-03T13:00:12;9.00;90.20
70068;DHT22;57425;51.616;6.680;2023-02-03T13:03:11;9.10;90.40
70068;DHT22;57425;51.616;6.680;2023-02-03T13:11:45;9.10;90.10
70068;DHT22;57425;51.616;6.680;2023-02-03T13:14:20;9.10;90.20
70068;DHT22;57425;51.616;6.680;2023-02-03T13:17:02;9.10;90.20
70068;DHT22;57425;51.616;6.680;2023-02-03T13:19:36;9.10;90.10
70068;DHT22;57425;51.616;6.680;2023-02-03T13:22:11;9.10;90.10
70068;DHT22;57425;51.616;6.680;2023-02-03T13:24:43;9.10;90.10
70068;DHT22;57425;51.616;6.680;2023-02-03T13:27:42;9.10;90.10
70068;DHT22;57425;51.616;6.680;2023-02-03T13:43:38;9.20;90.20
70068;DHT22;57425;51.616;6.680;2023-02-03T13:46:07;9.20;90.20
70068;DHT22;57425;51.616;6.680;2023-02-03T13:48:43;9.20;90.20
70068;DHT22;57425;51.616;6.680;2023-02-03T13:51:26;9.20;90.50
70068;DHT22;57425;51.616;6.680;2023-02-03T13:54:03;9.20;90.30
70068;DHT22;57425;51.616;6.680;2023-02-03T13:56:32;9.20;90.60
70068;DHT22;57425;51.616;6.680;2023-02-03T14:01:41;9.20;90.40
70068;DHT22;57425;51.616;6.680;2023-02-03T14:07:14;9.20;90.40
70068;DHT22;57425;51.616;6.680;2023-02-03T14:15:37;9.30;90.50
70068;DHT22;57425;51.616;6.680;2023-02-03T14:18:30;9.30;90.50
70068;DHT22;57425;51.616;6.680;2023-02-03T14:21:09;9.30;90.50
70068;DHT22;57425;51.616;6.680;2023-02-03T14:23:43;9.30;90.50
70068;DHT22;57425;51.616;6.680;2023-02-03T14:26:19;9.30;90.50
70068;DHT22;57425;51.616;6.680;2023-02-03T14:28:47;9.40;90.50
70068;DHT22;57425;51.616;6.680;2023-02-03T14:31:23;9.30;90.50
70068;DHT22;57425;51.616;6.680;2023-02-03T14:33:54;9.30;90.50
70068;DHT22;57425;51.616;6.680;2023-02-03T14:36:34;9.30;90.50
70068;DHT22;57425;51.616;6.680;2023-02-03T14:42:07;9.30;90.40
70068;DHT22;57425;51.616;6.680;2023-02-03T14:50:21;9.30;90.40
70068;DHT22;57425;51.616;6.680;2023-02-03T14:58:21;9.30;90.60
70068;DHT22;57425;51.616;6.680;2023-02-03T15:00:50;9.30;90.40
70068;DHT22;57425;51.616;6.680;2023-02-03T15:03:20;9.30;90.40
70068;DHT22;57425;51.616;6.680;2023-02-03T15:05:55;9.30;90.40
70068;DHT22;57425;51.616;6.680;2023-02-03T15:08:36;9.30;90.30
70068;DHT22;57425;51.616;6.680;2023-02-03T15:13:52;9.30;90.30
70068;DHT22;57425;51.616;6.680;2023-02-03T15:16:22;9.30;90.30
70068;DHT22;57425;51.616;6.680;2023-02-03T15:18:57;9.30;90.30
70068;DHT22;57425;51.616;6.680;2023-02-03T15:21:23;9.30;90.30
70068;DHT22;57425;51.616;6.680;2023-02-03T15:23:48;9.30;90.30
70068;DHT22;57425;51.616;6.680;2023-02-03T15:26:24;9.30;90.30
70068;DHT22;57425;51.616;6.680;2023-02-03T15:29:00;9.30;90.30
70068;DHT22;57425;51.616;6.680;2023-02-03T15:34:11;9.30;90.20
70068;DHT22;57425;51.616;6.680;2023-02-03T15:36:47;9.30;90.20
70068;DHT22;57425;51.616;6.680;2023-02-03T15:39:34;9.30;90.20
70068;DHT22;57425;51.616;6.680;2023-02-03T15:42:05;9.30;90.20
70068;DHT22;57425;51.616;6.680;2023-02-03T15:44:41;9.30;90.20
70068;DHT22;57425;51.616;6.680;2023-02-03T15:47:21;9.30;90.20
70068;DHT22;57425;51.616;6.680;2023-02-03T15:49:54;9.50;90.20
70068;DHT22;57425;51.616;6.680;2023-02-03T15:52:24;9.30;90.20
70068;DHT22;57425;51.616;6.680;2023-02-03T15:54:57;9.30;90.20
70068;DHT22;57425;51.616;6.680;2023-02-03T15:57:28;9.30;90.10
70068;DHT22;57425;51.616;6.680;2023-02-03T16:02:38;9.30;90.10
70068;DHT22;57425;51.616;6.680;2023-02-03T16:05:22;9.30;90.10
70068;DHT22;57425;51.616;6.680;2023-02-03T16:07:48;9.30;90.10
70068;DHT22;57425;51.616;6.680;2023-02-03T16:10:30;9.30;90.10
70068;DHT22;57425;51.616;6.680;2023-02-03T16:13:32;9.30;90.10
70068;DHT22;57425;51.616;6.680;2023-02-03T16:16:17;9.30;90.00
70068;DHT22;57425;51.616;6.680;2023-02-03T16:19:13;9.30;90.00
70068;DHT22;57425;51.616;6.680;2023-02-03T16:33:18;9.20;89.70
70068;DHT22;57425;51.616;6.680;2023-02-03T16:36:12;9.20;90.00
70068;DHT22;57425;51.616;6.680;2023-02-03T16:38:57;9.20;89.50
70068;DHT22;57425;51.616;6.680;2023-02-03T16:41:44;9.20;89.40
70068;DHT22;57425;51.616;6.680;2023-02-03T16:44:29;9.20;89.30
70068;DHT22;57425;51.616;6.680;2023-02-03T16:47:26;9.20;89.80
70068;DHT22;57425;51.616;6.680;2023-02-03T16:50:15;9.20;89.10
70068;DHT22;57425;51.616;6.680;2023-02-03T16:53:00;9.20;89.10
70068;DHT22;57425;51.616;6.680;2023-02-03T16:55:25;9.20;89.20
70068;DHT22;57425;51.616;6.680;2023-02-03T16:57:51;9.20;89.10
70068;DHT22;57425;51.616;6.680;2023-02-03T17:00:18;9.20;89.10
70068;DHT22;57425;51.616;6.680;2023-02-03T17:02:49;9.20;89.00
70068;DHT22;57425;51.616;6.680;2023-02-03T17:05:17;9.20;89.00
70068;DHT22;57425;51.616;6.680;2023-02-03T17:07:42;9.20;89.00
70068;DHT22;57425;51.616;6.680;2023-02-03T17:10:09;9.20;89.00
70068;DHT22;57425;51.616;6.680;2023-02-03T17:12:35;9.20;89.00
70068;DHT22;57425;51.616;6.680;2023-02-03T17:15:05;9.20;89.00
70068;DHT22;57425;51.616;6.680;2023-02-03T17:17:31;9.20;89.00
70068;DHT22;57425;51.616;6.680;2023-02-03T17:19:57;9.20;88.90
70068;DHT22;57425;51.616;6.680;2023-02-03T17:22:24;9.20;88.90
70068;DHT22;57425;51.616;6.680;2023-02-03T17:24:50;9.20;88.90
70068;DHT22;57425;51.616;6.680;2023-02-03T17:27:15;9.20;88.90
70068;DHT22;57425;51.616;6.680;2023-02-03T17:29:41;9.20;88.90
70068;DHT22;57425;51.616;6.680;2023-02-03T17:32:07;9.20;88.90
70068;DHT22;57425;51.616;6.680;2023-02-03T17:34:33;9.20;88.80
70068;DHT22;57425;51.616;6.680;2023-02-03T17:36:59;9.20;89.40
70068;DHT22;57425;51.616;6.680;2023-02-03T17:39:24;9.20;88.80
70068;DHT22;57425;51.616;6.680;2023-02-03T17:41:53;9.20;88.80
70068;DHT22;57425;51.616;6.680;2023-02-03T17:44:19;9.20;88.70
70068;DHT22;57425;51.616;6.680;2023-02-03T17:46:44;9.20;88.70
70068;DHT22;57425;51.616;6.680;2023-02-03T17:49:10;9.20;88.70
70068;DHT22;57425;51.616;6.680;2023-02-03T17:51:36;9.20;89.20
70068;DHT22;57425;51.616;6.680;2023-02-03T17:54:03;9.20;88.60
70068;DHT22;57425;51.616;6.680;2023-02-03T17:56:31;9.20;88.60
70068;DHT22;57425;51.616;6.680;2023-02-03T17:58:59;9.20;88.60
70068;DHT22;57425;51.616;6.680;2023-02-03T18:01:25;9.20;88.60
70068;DHT22;57425;51.616;6.680;2023-02-03T18:03:56;9.20;88.60
70068;DHT22;57425;51.616;6.680;2023-02-03T18:06:25;9.20;88.60
70068;DHT22;57425;51.616;6.680;2023-02-03T18:08:51;9.30;88.60
70068;DHT22;57425;51.616;6.680;2023-02-03T18:11:18;9.20;88.50
70068;DHT22;57425;51.616;6.680;2023-02-03T18:13:47;9.20;88.40
70068;DHT22;57425;51.616;6.680;2023-02-03T18:16:18;9.20;88.40
70068;DHT22;57425;51.616;6.680;2023-02-03T18:18:46;9.20;88.30
70068;DHT22;57425;51.616;6.680;2023-02-03T18:21:14;9.30;88.40
70068;DHT22;57425;51.616;6.680;2023-02-03T18:23:40;9.10;88.20
70068;DHT22;57425;51.616;6.680;2023-02-03T18:26:08;9.20;88.30
70068;DHT22;57425;51.616;6.680;2023-02-03T18:28:34;9.20;88.30
70068;DHT22;57425;51.616;6.680;2023-02-03T18:31:05;9.10;88.20
70068;DHT22;57425;51.616;6.680;2023-02-03T18:33:32;9.30;88.30
70068;DHT22;57425;51.616;6.680;2023-02-03T18:35:59;9.10;88.10